sensor_id;sensor_type;location;lat;lon;timestamp;pressure;altitude;pressure_sealevel;temperature;humidity
58092;BME280;43896;48.178;11.578;2024-01-30T00:00:32;97183.91;;;3.55;62.21
58092;BME280;43896;48.178;11.578;2024-01-30T00:02:57;97225.16;;;3.79;61.92
58092;BME280;43896;48.178;11.578;2024-01-30T00:05:23;97151.81;;;3.38;62.22
58092;BME280;43896;48.178;11.578;2024-01-30T00:07:48;97111.41;;;2.99;62.59
58092;BME280;43896;48.178;11.578;2024-01-30T00:10:14;97216.63;;;3.59;62.62
58092;BME280;43896;48.178;11.578;2024-01-30T00:12:39;97223.38;;;3.63;62.54
58092;BME280;43896;48.178;11.578;2024-01-30T00:15:04;97181.44;;;3.36;62.61
58092;BME280;43896;48.178;11.578;2024-01-30T00:17:33;97180.16;;;3.27;62.58
58092;BME280;43896;48.178;11.578;2024-01-30T00:19:58;97165.34;;;3.12;62.74
58092;BME280;43896;48.178;11.578;2024-01-30T00:22:24;97176.53;;;3.30;62.35
58092;BME280;43896;48.178;11.578;2024-01-30T00:24:49;97230.97;;;3.50;62.02
58092;BME280;43896;48.178;11.578;2024-01-30T00:27:14;97147.81;;;2.99;62.11
58092;BME280;43896;48.178;11.578;2024-01-30T00:29:40;97145.97;;;3.02;62.18
58092;BME280;43896;48.178;11.578;2024-01-30T00:32:06;97159.81;;;3.18;61.97
58092;BME280;43896;48.178;11.578;2024-01-30T00:34:31;97181.75;;;3.30;62.25
58092;BME280;43896;48.178;11.578;2024-01-30T00:36:56;97145.81;;;3.05;62.15
58092;BME280;43896;48.178;11.578;2024-01-30T00:39:22;97196.97;;;3.37;61.91
58092;BME280;43896;48.178;11.578;2024-01-30T00:41:47;97168.63;;;3.15;62.53
58092;BME280;43896;48.178;11.578;2024-01-30T00:44:13;97168.88;;;3.11;62.80
58092;BME280;43896;48.178;11.578;2024-01-30T00:46:38;97139.41;;;2.94;62.18
58092;BME280;43896;48.178;11.578;2024-01-30T00:49:04;97190.34;;;3.32;62.63
58092;BME280;43896;48.178;11.578;2024-01-30T00:51:29;97224.03;;;3.51;62.28
58092;BME280;43896;48.178;11.578;2024-01-30T00:53:55;97165.34;;;3.12;62.39
58092;BME280;43896;48.178;11.578;2024-01-30T00:56:20;97243.44;;;3.61;62.48
58092;BME280;43896;48.178;11.578;2024-01-30T00:58:46;97149.25;;;3.05;62.56
58092;BME280;43896;48.178;11.578;2024-01-30T01:01:11;97167.19;;;3.10;63.41
58092;BME280;43896;48.178;11.578;2024-01-30T01:03:37;97197.00;;;3.20;62.59
58092;BME280;43896;48.178;11.578;2024-01-30T01:06:03;97168.72;;;3.14;62.96
58092;BME280;43896;48.178;11.578;2024-01-30T01:08:28;97162.63;;;2.97;62.91
58092;BME280;43896;48.178;11.578;2024-01-30T01:10:54;97160.94;;;2.96;63.42
58092;BME280;43896;48.178;11.578;2024-01-30T01:13:19;97218.34;;;3.27;62.73
58092;BME280;43896;48.178;11.578;2024-01-30T01:15:45;97183.78;;;3.07;62.90
58092;BME280;43896;48.178;11.578;2024-01-30T01:18:10;97241.09;;;3.39;63.11
58092;BME280;43896;48.178;11.578;2024-01-30T01:20:35;97153.03;;;2.82;63.21
58092;BME280;43896;48.178;11.578;2024-01-30T01:23:01;97243.63;;;3.41;63.48
58092;BME280;43896;48.178;11.578;2024-01-30T01:25:26;97203.94;;;3.19;63.69
58092;BME280;43896;48.178;11.578;2024-01-30T01:27:52;97147.97;;;2.79;63.70
58092;BME280;43896;48.178;11.578;2024-01-30T01:30:18;97168.28;;;2.88;63.48
58092;BME280;43896;48.178;11.578;2024-01-30T01:32:48;97214.00;;;3.10;63.16
58092;BME280;43896;48.178;11.578;2024-01-30T01:35:23;97135.00;;;2.61;63.33
58092;BME280;43896;48.178;11.578;2024-01-30T01:37:50;97237.38;;;3.27;63.64
58092;BME280;43896;48.178;11.578;2024-01-30T01:40:25;97172.72;;;2.86;63.74
58092;BME280;43896;48.178;11.578;2024-01-30T01:42:51;97165.41;;;2.77;63.74
58092;BME280;43896;48.178;11.578;2024-01-30T01:45:18;97239.88;;;3.29;64.08
58092;BME280;43896;48.178;11.578;2024-01-30T01:47:43;97131.31;;;2.66;63.40
58092;BME280;43896;48.178;11.578;2024-01-30T01:50:12;97237.44;;;3.26;62.94
58092;BME280;43896;48.178;11.578;2024-01-30T01:52:40;97230.63;;;3.23;63.79
58092;BME280;43896;48.178;11.578;2024-01-30T01:55:07;97156.69;;;2.78;63.81
58092;BME280;43896;48.178;11.578;2024-01-30T01:57:33;97129.13;;;2.58;63.06
58092;BME280;43896;48.178;11.578;2024-01-30T02:00:00;97200.91;;;2.94;63.11
58092;BME280;43896;48.178;11.578;2024-01-30T02:02:26;97225.28;;;3.09;63.10
58092;BME280;43896;48.178;11.578;2024-01-30T02:04:55;97207.94;;;2.92;64.05
58092;BME280;43896;48.178;11.578;2024-01-30T02:07:20;97151.03;;;2.52;64.12
58092;BME280;43896;48.178;11.578;2024-01-30T02:09:46;97206.56;;;2.85;63.80
58092;BME280;43896;48.178;11.578;2024-01-30T02:12:11;97233.91;;;3.09;64.05
58092;BME280;43896;48.178;11.578;2024-01-30T02:14:46;97149.03;;;2.57;63.44
58092;BME280;43896;48.178;11.578;2024-01-30T02:17:12;97149.03;;;2.57;63.52
58092;BME280;43896;48.178;11.578;2024-01-30T02:19:39;97237.81;;;3.00;64.07
58092;BME280;43896;48.178;11.578;2024-01-30T02:22:05;97198.03;;;2.29;65.12
58092;BME280;43896;48.178;11.578;2024-01-30T02:24:30;97155.13;;;2.21;64.26
58092;BME280;43896;48.178;11.578;2024-01-30T02:26:56;97119.78;;;2.01;63.83
58092;BME280;43896;48.178;11.578;2024-01-30T02:29:21;97151.41;;;2.27;64.32
58092;BME280;43896;48.178;11.578;2024-01-30T02:31:47;97147.53;;;2.36;63.74
58092;BME280;43896;48.178;11.578;2024-01-30T02:34:13;97223.69;;;2.89;63.73
58092;BME280;43896;48.178;11.578;2024-01-30T02:36:38;97215.34;;;2.65;63.90
58092;BME280;43896;48.178;11.578;2024-01-30T02:39:07;97184.09;;;2.49;64.02
58092;BME280;43896;48.178;11.578;2024-01-30T02:41:33;97190.88;;;2.34;64.43
58092;BME280;43896;48.178;11.578;2024-01-30T02:43:58;97188.13;;;2.37;65.50
58092;BME280;43896;48.178;11.578;2024-01-30T02:46:24;97160.19;;;2.42;64.99
58092;BME280;43896;48.178;11.578;2024-01-30T02:48:49;97227.50;;;2.99;64.71
58092;BME280;43896;48.178;11.578;2024-01-30T02:51:14;97152.72;;;2.53;64.15
58092;BME280;43896;48.178;11.578;2024-01-30T02:53:40;97207.41;;;2.85;63.97
58092;BME280;43896;48.178;11.578;2024-01-30T02:56:05;97107.97;;;2.31;63.66
58092;BME280;43896;48.178;11.578;2024-01-30T02:58:34;97233.00;;;2.58;64.79
58092;BME280;43896;48.178;11.578;2024-01-30T03:01:00;97163.78;;;2.39;64.03
58092;BME280;43896;48.178;11.578;2024-01-30T03:03:25;97157.91;;;2.53;64.46
58092;BME280;43896;48.178;11.578;2024-01-30T03:05:50;97160.66;;;2.50;64.27
58092;BME280;43896;48.178;11.578;2024-01-30T03:08:16;97213.53;;;2.84;64.57
58092;BME280;43896;48.178;11.578;2024-01-30T03:10:41;97146.91;;;2.48;64.65
58092;BME280;43896;48.178;11.578;2024-01-30T03:13:07;97220.25;;;2.71;65.28
58092;BME280;43896;48.178;11.578;2024-01-30T03:15:32;97167.28;;;2.56;64.67
58092;BME280;43896;48.178;11.578;2024-01-30T03:17:58;97208.34;;;2.84;64.20
58092;BME280;43896;48.178;11.578;2024-01-30T03:20:23;97144.00;;;2.37;64.20
58092;BME280;43896;48.178;11.578;2024-01-30T03:22:49;97127.66;;;2.17;64.99
58092;BME280;43896;48.178;11.578;2024-01-30T03:25:14;97161.50;;;2.51;64.14
58092;BME280;43896;48.178;11.578;2024-01-30T03:27:40;97123.69;;;2.28;63.97
58092;BME280;43896;48.178;11.578;2024-01-30T03:30:07;97158.13;;;2.31;64.91
58092;BME280;43896;48.178;11.578;2024-01-30T03:32:33;97126.56;;;2.21;65.11
58092;BME280;43896;48.178;11.578;2024-01-30T03:34:59;97211.56;;;2.72;64.61
58092;BME280;43896;48.178;11.578;2024-01-30T03:37:25;97120.75;;;2.16;64.62
58092;BME280;43896;48.178;11.578;2024-01-30T03:39:50;97098.78;;;2.06;64.65
58092;BME280;43896;48.178;11.578;2024-01-30T03:42:15;97136.03;;;2.22;64.43
58092;BME280;43896;48.178;11.578;2024-01-30T03:44:41;97131.53;;;2.26;64.80
58092;BME280;43896;48.178;11.578;2024-01-30T03:47:06;97187.03;;;2.60;64.26
58092;BME280;43896;48.178;11.578;2024-01-30T03:49:31;97152.91;;;2.14;65.79
58092;BME280;43896;48.178;11.578;2024-01-30T03:51:57;97101.81;;;1.97;65.11
58092;BME280;43896;48.178;11.578;2024-01-30T03:54:22;97204.06;;;2.66;64.74
58092;BME280;43896;48.178;11.578;2024-01-30T03:56:48;97128.19;;;2.24;64.22
58092;BME280;43896;48.178;11.578;2024-01-30T03:59:13;97120.00;;;2.14;64.03
58092;BME280;43896;48.178;11.578;2024-01-30T04:01:39;97188.75;;;2.59;63.96
58092;BME280;43896;48.178;11.578;2024-01-30T04:04:04;97113.03;;;2.15;64.65
58092;BME280;43896;48.178;11.578;2024-01-30T04:06:29;97213.16;;;2.74;64.74
58092;BME280;43896;48.178;11.578;2024-01-30T04:08:55;97134.91;;;2.28;64.94
58092;BME280;43896;48.178;11.578;2024-01-30T04:11:20;97115.22;;;2.24;64.70
58092;BME280;43896;48.178;11.578;2024-01-30T04:13:46;97109.09;;;2.25;63.55
58092;BME280;43896;48.178;11.578;2024-01-30T04:16:20;97088.25;;;2.09;63.31
58092;BME280;43896;48.178;11.578;2024-01-30T04:18:46;97139.94;;;2.14;64.35
58092;BME280;43896;48.178;11.578;2024-01-30T04:21:11;97187.44;;;2.51;64.25
58092;BME280;43896;48.178;11.578;2024-01-30T04:23:37;97118.97;;;2.18;64.89
58092;BME280;43896;48.178;11.578;2024-01-30T04:26:02;97116.78;;;2.09;64.63
58092;BME280;43896;48.178;11.578;2024-01-30T04:28:28;97076.41;;;1.86;64.35
58092;BME280;43896;48.178;11.578;2024-01-30T04:30:54;97186.09;;;2.07;65.98
58092;BME280;43896;48.178;11.578;2024-01-30T04:33:19;97178.06;;;2.31;64.99
58092;BME280;43896;48.178;11.578;2024-01-30T04:35:45;97121.66;;;1.98;65.04
58092;BME280;43896;48.178;11.578;2024-01-30T04:38:10;97121.34;;;2.04;64.66
58092;BME280;43896;48.178;11.578;2024-01-30T04:40:35;97111.19;;;1.99;64.90
58092;BME280;43896;48.178;11.578;2024-01-30T04:43:01;97107.56;;;2.03;64.56
58092;BME280;43896;48.178;11.578;2024-01-30T04:45:26;97188.31;;;2.51;64.72
58092;BME280;43896;48.178;11.578;2024-01-30T04:47:52;97112.66;;;2.05;64.71
58092;BME280;43896;48.178;11.578;2024-01-30T04:50:17;97143.22;;;2.17;64.58
58092;BME280;43896;48.178;11.578;2024-01-30T04:52:43;97098.88;;;1.85;64.73
58092;BME280;43896;48.178;11.578;2024-01-30T04:55:09;97079.34;;;1.78;64.67
58092;BME280;43896;48.178;11.578;2024-01-30T04:57:34;97139.38;;;2.07;64.16
58092;BME280;43896;48.178;11.578;2024-01-30T04:59:59;97210.41;;;2.60;64.02
58092;BME280;43896;48.178;11.578;2024-01-30T05:02:25;97163.91;;;2.19;64.85
58092;BME280;43896;48.178;11.578;2024-01-30T05:04:50;97129.13;;;2.04;64.02
58092;BME280;43896;48.178;11.578;2024-01-30T05:07:16;97215.53;;;2.61;64.11
58092;BME280;43896;48.178;11.578;2024-01-30T05:09:41;97126.34;;;2.09;64.00
58092;BME280;43896;48.178;11.578;2024-01-30T05:12:07;97225.28;;;2.56;64.20
58092;BME280;43896;48.178;11.578;2024-01-30T05:14:32;97214.81;;;2.21;65.32
58092;BME280;43896;48.178;11.578;2024-01-30T05:16:58;97113.19;;;1.75;64.61
58092;BME280;43896;48.178;11.578;2024-01-30T05:19:23;97213.50;;;2.49;64.75
58092;BME280;43896;48.178;11.578;2024-01-30T05:21:49;97082.38;;;1.69;64.44
58092;BME280;43896;48.178;11.578;2024-01-30T05:24:15;97152.84;;;2.15;64.48
58092;BME280;43896;48.178;11.578;2024-01-30T05:26:40;97153.44;;;2.03;64.97
58092;BME280;43896;48.178;11.578;2024-01-30T05:29:06;97160.38;;;2.20;64.75
58092;BME280;43896;48.178;11.578;2024-01-30T05:31:33;97193.78;;;2.28;64.94
58092;BME280;43896;48.178;11.578;2024-01-30T05:33:59;97154.19;;;2.05;65.24
58092;BME280;43896;48.178;11.578;2024-01-30T05:36:25;97230.56;;;2.55;65.21
58092;BME280;43896;48.178;11.578;2024-01-30T05:38:50;97120.03;;;1.95;64.76
58092;BME280;43896;48.178;11.578;2024-01-30T05:41:16;97153.03;;;2.11;64.49
58092;BME280;43896;48.178;11.578;2024-01-30T05:43:41;97141.06;;;2.08;64.67
58092;BME280;43896;48.178;11.578;2024-01-30T05:46:06;97127.84;;;1.95;64.89
58092;BME280;43896;48.178;11.578;2024-01-30T05:48:32;97205.69;;;2.32;64.76
58092;BME280;43896;48.178;11.578;2024-01-30T05:50:58;97157.06;;;1.23;66.72
58092;BME280;43896;48.178;11.578;2024-01-30T05:53:25;97165.47;;;1.09;68.78
58092;BME280;43896;48.178;11.578;2024-01-30T05:55:50;97178.97;;;1.74;66.23
58092;BME280;43896;48.178;11.578;2024-01-30T05:58:15;97145.44;;;1.88;65.85
58092;BME280;43896;48.178;11.578;2024-01-30T06:00:41;97235.03;;;2.15;66.04
58092;BME280;43896;48.178;11.578;2024-01-30T06:03:07;97215.97;;;2.16;65.95
58092;BME280;43896;48.178;11.578;2024-01-30T06:05:32;97244.63;;;1.56;67.86
58092;BME280;43896;48.178;11.578;2024-01-30T06:07:58;97225.03;;;1.88;67.57
58092;BME280;43896;48.178;11.578;2024-01-30T06:10:23;97223.28;;;2.25;65.76
58092;BME280;43896;48.178;11.578;2024-01-30T06:12:48;97194.06;;;2.39;65.32
58092;BME280;43896;48.178;11.578;2024-01-30T06:15:14;97226.16;;;1.63;67.67
58092;BME280;43896;48.178;11.578;2024-01-30T06:17:39;97229.97;;;2.31;66.32
58092;BME280;43896;48.178;11.578;2024-01-30T06:20:05;97235.13;;;2.50;65.82
58092;BME280;43896;48.178;11.578;2024-01-30T06:22:31;97204.56;;;2.37;65.40
58092;BME280;43896;48.178;11.578;2024-01-30T06:24:56;97230.09;;;2.28;65.39
58092;BME280;43896;48.178;11.578;2024-01-30T06:27:22;97193.53;;;1.96;66.53
58092;BME280;43896;48.178;11.578;2024-01-30T06:29:47;97211.13;;;1.70;66.72
58092;BME280;43896;48.178;11.578;2024-01-30T06:32:12;97223.25;;;2.08;66.62
58092;BME280;43896;48.178;11.578;2024-01-30T06:34:38;97223.44;;;2.41;65.84
58092;BME280;43896;48.178;11.578;2024-01-30T06:37:05;97243.75;;;1.95;66.70
58092;BME280;43896;48.178;11.578;2024-01-30T06:39:30;97225.34;;;2.37;66.09
58092;BME280;43896;48.178;11.578;2024-01-30T06:41:55;97254.47;;;2.61;65.13
58092;BME280;43896;48.178;11.578;2024-01-30T06:44:21;97237.97;;;2.62;64.88
58092;BME280;43896;48.178;11.578;2024-01-30T06:46:46;97247.19;;;2.68;65.05
58092;BME280;43896;48.178;11.578;2024-01-30T06:49:12;97252.50;;;2.67;65.01
58092;BME280;43896;48.178;11.578;2024-01-30T06:51:37;97244.44;;;2.54;65.56
58092;BME280;43896;48.178;11.578;2024-01-30T06:54:03;97236.09;;;2.47;65.29
58092;BME280;43896;48.178;11.578;2024-01-30T06:56:28;97253.41;;;2.66;65.05
58092;BME280;43896;48.178;11.578;2024-01-30T06:58:53;97178.78;;;2.15;64.81
58092;BME280;43896;48.178;11.578;2024-01-30T07:01:19;97244.31;;;2.57;65.31
58092;BME280;43896;48.178;11.578;2024-01-30T07:03:44;97221.53;;;2.44;65.21
58092;BME280;43896;48.178;11.578;2024-01-30T07:06:10;97265.16;;;2.73;65.05
58092;BME280;43896;48.178;11.578;2024-01-30T07:08:38;97260.03;;;2.71;65.05
58092;BME280;43896;48.178;11.578;2024-01-30T07:11:07;97250.03;;;2.63;64.81
58092;BME280;43896;48.178;11.578;2024-01-30T07:13:33;97239.41;;;2.68;65.28
58092;BME280;43896;48.178;11.578;2024-01-30T07:15:59;97256.34;;;2.77;64.76
58092;BME280;43896;48.178;11.578;2024-01-30T07:18:24;97262.28;;;2.79;64.56
58092;BME280;43896;48.178;11.578;2024-01-30T07:20:50;97231.47;;;2.54;65.13
58092;BME280;43896;48.178;11.578;2024-01-30T07:23:16;97236.91;;;2.67;64.78
58092;BME280;43896;48.178;11.578;2024-01-30T07:25:43;97264.44;;;3.06;63.99
58092;BME280;43896;48.178;11.578;2024-01-30T07:28:10;97266.94;;;2.72;65.30
58092;BME280;43896;48.178;11.578;2024-01-30T07:30:36;97253.81;;;3.10;64.22
58092;BME280;43896;48.178;11.578;2024-01-30T07:33:01;97262.78;;;3.55;63.00
58092;BME280;43896;48.178;11.578;2024-01-30T07:35:27;97263.34;;;3.78;61.89
58092;BME280;43896;48.178;11.578;2024-01-30T07:37:52;97257.28;;;4.27;60.97
58092;BME280;43896;48.178;11.578;2024-01-30T07:40:17;97252.91;;;4.27;60.21
58092;BME280;43896;48.178;11.578;2024-01-30T07:42:43;97261.13;;;4.20;60.99
58092;BME280;43896;48.178;11.578;2024-01-30T07:45:09;97222.84;;;4.06;60.70
58092;BME280;43896;48.178;11.578;2024-01-30T07:47:34;97267.69;;;4.27;61.08
58092;BME280;43896;48.178;11.578;2024-01-30T07:49:59;97270.97;;;4.15;61.59
58092;BME280;43896;48.178;11.578;2024-01-30T07:52:25;97264.50;;;4.06;62.54
58092;BME280;43896;48.178;11.578;2024-01-30T07:54:53;97229.69;;;4.23;62.02
58092;BME280;43896;48.178;11.578;2024-01-30T07:57:18;97244.13;;;4.60;61.04
58092;BME280;43896;48.178;11.578;2024-01-30T07:59:44;97226.75;;;4.61;60.78
58092;BME280;43896;48.178;11.578;2024-01-30T08:02:11;97258.03;;;4.91;61.03
58092;BME280;43896;48.178;11.578;2024-01-30T08:04:37;97260.56;;;5.07;60.43
58092;BME280;43896;48.178;11.578;2024-01-30T08:07:03;97278.00;;;5.51;60.02
58092;BME280;43896;48.178;11.578;2024-01-30T08:09:28;97242.59;;;5.61;58.92
58092;BME280;43896;48.178;11.578;2024-01-30T08:11:53;97205.41;;;5.58;58.12
58092;BME280;43896;48.178;11.578;2024-01-30T08:14:19;97278.13;;;6.22;57.23
58092;BME280;43896;48.178;11.578;2024-01-30T08:16:44;97219.38;;;5.86;57.76
58092;BME280;43896;48.178;11.578;2024-01-30T08:19:10;97257.19;;;6.09;57.41
58092;BME280;43896;48.178;11.578;2024-01-30T08:21:35;97266.56;;;6.26;57.85
58092;BME280;43896;48.178;11.578;2024-01-30T08:24:05;97256.91;;;6.41;57.18
58092;BME280;43896;48.178;11.578;2024-01-30T08:26:31;97202.47;;;6.20;56.88
58092;BME280;43896;48.178;11.578;2024-01-30T08:28:57;97195.91;;;6.42;56.42
58092;BME280;43896;48.178;11.578;2024-01-30T08:31:22;97225.19;;;6.74;56.27
58092;BME280;43896;48.178;11.578;2024-01-30T08:33:48;97261.25;;;7.22;56.14
58092;BME280;43896;48.178;11.578;2024-01-30T08:36:14;97257.28;;;7.03;56.45
58092;BME280;43896;48.178;11.578;2024-01-30T08:38:39;97248.66;;;7.01;55.66
58092;BME280;43896;48.178;11.578;2024-01-30T08:41:05;97255.84;;;7.38;52.63
58092;BME280;43896;48.178;11.578;2024-01-30T08:43:30;97268.84;;;7.52;54.45
58092;BME280;43896;48.178;11.578;2024-01-30T08:45:59;97259.63;;;7.85;52.09
58092;BME280;43896;48.178;11.578;2024-01-30T08:48:24;97261.03;;;8.15;52.01
58092;BME280;43896;48.178;11.578;2024-01-30T08:50:50;97261.53;;;8.33;49.20
58092;BME280;43896;48.178;11.578;2024-01-30T08:53:16;97248.53;;;8.44;49.56
58092;BME280;43896;48.178;11.578;2024-01-30T08:55:41;97267.97;;;8.66;49.66
58092;BME280;43896;48.178;11.578;2024-01-30T08:58:06;97254.56;;;8.81;47.04
58092;BME280;43896;48.178;11.578;2024-01-30T09:00:32;97242.16;;;8.83;45.83
58092;BME280;43896;48.178;11.578;2024-01-30T09:02:57;97248.00;;;8.76;47.24
58092;BME280;43896;48.178;11.578;2024-01-30T09:05:22;97251.13;;;8.81;47.26
58092;BME280;43896;48.178;11.578;2024-01-30T09:07:48;97247.66;;;9.16;45.19
58092;BME280;43896;48.178;11.578;2024-01-30T09:10:13;97235.91;;;9.33;44.38
58092;BME280;43896;48.178;11.578;2024-01-30T09:12:39;97270.59;;;9.72;43.57
58092;BME280;43896;48.178;11.578;2024-01-30T09:15:04;97267.88;;;9.96;42.35
58092;BME280;43896;48.178;11.578;2024-01-30T09:17:31;97247.78;;;9.95;41.86
58092;BME280;43896;48.178;11.578;2024-01-30T09:19:56;97240.97;;;10.04;42.07
58092;BME280;43896;48.178;11.578;2024-01-30T09:22:22;97284.59;;;9.95;42.06
58092;BME280;43896;48.178;11.578;2024-01-30T09:24:47;97273.38;;;10.38;40.41
58092;BME280;43896;48.178;11.578;2024-01-30T09:27:12;97287.13;;;10.97;40.26
58092;BME280;43896;48.178;11.578;2024-01-30T09:29:38;97259.47;;;10.59;41.11
58092;BME280;43896;48.178;11.578;2024-01-30T09:32:04;97271.44;;;10.18;42.74
58092;BME280;43896;48.178;11.578;2024-01-30T09:34:31;97291.41;;;10.65;42.79
58092;BME280;43896;48.178;11.578;2024-01-30T09:36:56;97278.81;;;11.13;42.45
58092;BME280;43896;48.178;11.578;2024-01-30T09:39:22;97290.41;;;11.42;41.48
58092;BME280;43896;48.178;11.578;2024-01-30T09:42:05;97288.22;;;11.69;41.89
58092;BME280;43896;48.178;11.578;2024-01-30T09:44:30;97280.91;;;11.72;41.44
58092;BME280;43896;48.178;11.578;2024-01-30T09:46:56;97294.00;;;11.83;40.99
58092;BME280;43896;48.178;11.578;2024-01-30T09:49:24;97269.72;;;11.80;41.45
58092;BME280;43896;48.178;11.578;2024-01-30T09:51:50;97286.34;;;12.01;41.03
58092;BME280;43896;48.178;11.578;2024-01-30T09:54:15;97290.59;;;12.14;40.85
58092;BME280;43896;48.178;11.578;2024-01-30T09:56:41;97282.31;;;12.28;41.01
58092;BME280;43896;48.178;11.578;2024-01-30T09:59:06;97291.59;;;11.92;40.75
58092;BME280;43896;48.178;11.578;2024-01-30T10:01:34;97281.25;;;12.41;40.89
58092;BME280;43896;48.178;11.578;2024-01-30T10:04:00;97257.25;;;12.44;38.90
58092;BME280;43896;48.178;11.578;2024-01-30T10:06:26;97260.00;;;12.42;39.36
58092;BME280;43896;48.178;11.578;2024-01-30T10:08:52;97277.19;;;12.87;38.85
58092;BME280;43896;48.178;11.578;2024-01-30T10:11:17;97285.53;;;13.11;37.87
58092;BME280;43896;48.178;11.578;2024-01-30T10:13:43;97286.25;;;13.23;37.54
58092;BME280;43896;48.178;11.578;2024-01-30T10:16:08;97263.88;;;13.18;37.42
58092;BME280;43896;48.178;11.578;2024-01-30T10:18:34;97266.53;;;13.27;37.65
58092;BME280;43896;48.178;11.578;2024-01-30T10:20:59;97261.09;;;13.19;37.75
58092;BME280;43896;48.178;11.578;2024-01-30T10:23:24;97223.28;;;12.99;37.91
58092;BME280;43896;48.178;11.578;2024-01-30T10:25:53;97267.06;;;13.31;38.13
58092;BME280;43896;48.178;11.578;2024-01-30T10:28:18;97241.06;;;13.17;37.11
58092;BME280;43896;48.178;11.578;2024-01-30T10:30:44;97244.28;;;13.10;37.08
58092;BME280;43896;48.178;11.578;2024-01-30T10:33:09;97260.50;;;12.96;37.09
58092;BME280;43896;48.178;11.578;2024-01-30T10:35:35;97273.69;;;12.76;38.53
58092;BME280;43896;48.178;11.578;2024-01-30T10:38:00;97270.56;;;12.42;39.59
58092;BME280;43896;48.178;11.578;2024-01-30T10:40:29;97239.84;;;12.31;39.57
58092;BME280;43896;48.178;11.578;2024-01-30T10:42:55;97252.97;;;12.52;38.82
58092;BME280;43896;48.178;11.578;2024-01-30T10:45:22;97255.19;;;12.67;38.60
58092;BME280;43896;48.178;11.578;2024-01-30T10:47:53;97244.25;;;12.81;37.68
58092;BME280;43896;48.178;11.578;2024-01-30T10:50:24;97229.38;;;12.80;37.75
58092;BME280;43896;48.178;11.578;2024-01-30T10:52:50;97227.97;;;12.86;37.97
58092;BME280;43896;48.178;11.578;2024-01-30T10:55:16;97221.13;;;12.34;39.40
58092;BME280;43896;48.178;11.578;2024-01-30T10:57:43;97206.16;;;12.04;39.18
58092;BME280;43896;48.178;11.578;2024-01-30T11:00:11;97237.50;;;11.97;40.13
58092;BME280;43896;48.178;11.578;2024-01-30T11:02:42;97224.53;;;12.15;38.73
58092;BME280;43896;48.178;11.578;2024-01-30T11:05:08;97224.53;;;11.63;38.23
58092;BME280;43896;48.178;11.578;2024-01-30T11:07:39;97196.97;;;11.68;37.53
58092;BME280;43896;48.178;11.578;2024-01-30T11:10:05;97187.44;;;12.67;36.47
58092;BME280;43896;48.178;11.578;2024-01-30T11:12:32;97200.59;;;13.16;35.34
58092;BME280;43896;48.178;11.578;2024-01-30T11:20:22;97208.81;;;13.90;31.58
58092;BME280;43896;48.178;11.578;2024-01-30T11:22:54;97208.09;;;13.97;31.97
58092;BME280;43896;48.178;11.578;2024-01-30T11:25:22;97215.44;;;14.03;31.22
58092;BME280;43896;48.178;11.578;2024-01-30T11:27:56;97192.34;;;13.96;32.06
58092;BME280;43896;48.178;11.578;2024-01-30T11:30:30;97197.03;;;13.84;32.40
58092;BME280;43896;48.178;11.578;2024-01-30T11:32:59;97208.16;;;14.15;31.70
58092;BME280;43896;48.178;11.578;2024-01-30T11:35:25;97197.53;;;13.50;32.65
58092;BME280;43896;48.178;11.578;2024-01-30T11:37:51;97141.28;;;13.10;34.39
58092;BME280;43896;48.178;11.578;2024-01-30T11:40:16;97167.19;;;14.19;33.00
58092;BME280;43896;48.178;11.578;2024-01-30T11:42:42;97195.19;;;14.68;32.45
58092;BME280;43896;48.178;11.578;2024-01-30T11:45:08;97190.38;;;14.53;31.15
58092;BME280;43896;48.178;11.578;2024-01-30T11:47:35;97181.47;;;14.26;35.60
58092;BME280;43896;48.178;11.578;2024-01-30T11:50:02;97192.22;;;14.25;34.02
58092;BME280;43896;48.178;11.578;2024-01-30T11:52:28;97176.97;;;13.81;33.95
58092;BME280;43896;48.178;11.578;2024-01-30T11:54:54;97187.09;;;14.23;32.55
58092;BME280;43896;48.178;11.578;2024-01-30T11:57:19;97186.09;;;14.24;32.07
58092;BME280;43896;48.178;11.578;2024-01-30T11:59:46;97151.28;;;14.01;31.85
58092;BME280;43896;48.178;11.578;2024-01-30T12:02:15;97151.47;;;13.90;32.40
58092;BME280;43896;48.178;11.578;2024-01-30T12:04:42;97179.69;;;13.99;32.40
58092;BME280;43896;48.178;11.578;2024-01-30T12:07:07;97147.28;;;13.60;32.61
58092;BME280;43896;48.178;11.578;2024-01-30T12:09:33;97164.16;;;13.86;32.33
58092;BME280;43896;48.178;11.578;2024-01-30T12:11:58;97135.25;;;13.75;32.50
58092;BME280;43896;48.178;11.578;2024-01-30T12:14:24;97141.25;;;13.77;32.72
58092;BME280;43896;48.178;11.578;2024-01-30T12:16:51;97140.22;;;13.88;32.84
58092;BME280;43896;48.178;11.578;2024-01-30T12:19:25;97165.84;;;14.15;32.83
58092;BME280;43896;48.178;11.578;2024-01-30T12:21:58;97119.97;;;13.69;32.38
58092;BME280;43896;48.178;11.578;2024-01-30T12:24:27;97126.44;;;13.57;32.40
58092;BME280;43896;48.178;11.578;2024-01-30T12:26:56;97129.81;;;13.29;34.24
58092;BME280;43896;48.178;11.578;2024-01-30T12:29:22;97123.13;;;13.82;33.90
58092;BME280;43896;48.178;11.578;2024-01-30T12:31:47;97129.72;;;14.24;32.28
58092;BME280;43896;48.178;11.578;2024-01-30T12:34:16;97126.72;;;14.55;31.13
58092;BME280;43896;48.178;11.578;2024-01-30T12:36:43;97152.69;;;14.87;33.14
58092;BME280;43896;48.178;11.578;2024-01-30T12:39:11;97122.09;;;14.93;34.31
58092;BME280;43896;48.178;11.578;2024-01-30T12:41:38;97111.88;;;14.98;35.01
58092;BME280;43896;48.178;11.578;2024-01-30T12:44:03;97102.03;;;14.90;30.60
58092;BME280;43896;48.178;11.578;2024-01-30T12:46:29;97088.28;;;14.33;30.44
58092;BME280;43896;48.178;11.578;2024-01-30T12:48:54;97119.69;;;14.63;30.36
58092;BME280;43896;48.178;11.578;2024-01-30T12:51:20;97138.50;;;14.42;31.32
58092;BME280;43896;48.178;11.578;2024-01-30T12:53:45;97130.81;;;14.03;32.30
58092;BME280;43896;48.178;11.578;2024-01-30T12:56:13;97128.97;;;14.50;30.95